sensor_id;sensor_type;location;lat;lon;timestamp;pressure;altitude;pressure_sealevel;temperature;humidity
50242;BME280;36126;43.222;27.874;2023-04-08T00:01:04;101691.34;;;7.27;100.00
50242;BME280;36126;43.222;27.874;2023-04-08T00:03:30;101695.00;;;7.28;100.00
50242;BME280;36126;43.222;27.874;2023-04-08T00:05:56;101693.56;;;7.32;100.00
50242;BME280;36126;43.222;27.874;2023-04-08T00:08:21;101691.16;;;7.29;100.00
50242;BME280;36126;43.222;27.874;2023-04-08T00:10:47;101688.03;;;7.32;100.00
50242;BME280;36126;43.222;27.874;2023-04-08T00:13:12;101688.66;;;7.19;100.00
50242;BME280;36126;43.222;27.874;2023-04-08T00:15:39;101687.44;;;7.22;100.00
50242;BME280;36126;43.222;27.874;2023-04-08T00:18:05;101690.88;;;7.24;100.00
50242;BME280;36126;43.222;27.874;2023-04-08T00:20:31;101687.16;;;7.31;100.00
50242;BME280;36126;43.222;27.874;2023-04-08T00:22:56;101693.47;;;7.25;100.00
50242;BME280;36126;43.222;27.874;2023-04-08T00:25:22;101683.16;;;7.19;100.00
50242;BME280;36126;43.222;27.874;2023-04-08T00:27:47;101693.34;;;7.19;100.00
50242;BME280;36126;43.222;27.874;2023-04-08T00:30:13;101681.03;;;7.06;100.00
50242;BME280;36126;43.222;27.874;2023-04-08T00:32:39;101690.41;;;7.20;100.00
50242;BME280;36126;43.222;27.874;2023-04-08T00:35:05;101689.75;;;7.18;100.00
50242;BME280;36126;43.222;27.874;2023-04-08T00:37:31;101692.88;;;7.15;100.00
50242;BME280;36126;43.222;27.874;2023-04-08T00:39:57;101698.09;;;7.25;100.00
50242;BME280;36126;43.222;27.874;2023-04-08T00:42:22;101691.53;;;7.11;100.00
50242;BME280;36126;43.222;27.874;2023-04-08T00:44:48;101682.56;;;7.09;100.00
50242;BME280;36126;43.222;27.874;2023-04-08T00:47:14;101688.84;;;7.03;100.00
50242;BME280;36126;43.222;27.874;2023-04-08T00:49:40;101686.97;;;7.03;100.00
50242;BME280;36126;43.222;27.874;2023-04-08T00:52:05;101690.06;;;7.00;100.00
50242;BME280;36126;43.222;27.874;2023-04-08T00:54:31;101692.34;;;6.81;100.00
50242;BME280;36126;43.222;27.874;2023-04-08T00:56:56;101684.38;;;6.87;100.00
50242;BME280;36126;43.222;27.874;2023-04-08T00:59:25;101686.81;;;6.81;100.00
50242;BME280;36126;43.222;27.874;2023-04-08T01:07:19;101679.56;;;6.80;100.00
50242;BME280;36126;43.222;27.874;2023-04-08T01:09:56;101678.84;;;6.87;100.00
50242;BME280;36126;43.222;27.874;2023-04-08T01:12:24;101676.72;;;6.89;100.00
50242;BME280;36126;43.222;27.874;2023-04-08T01:14:51;101677.88;;;6.79;100.00
50242;BME280;36126;43.222;27.874;2023-04-08T01:17:20;101675.09;;;6.94;100.00
50242;BME280;36126;43.222;27.874;2023-04-08T01:19:46;101676.72;;;6.89;100.00
50242;BME280;36126;43.222;27.874;2023-04-08T01:22:38;101681.63;;;7.02;100.00
50242;BME280;36126;43.222;27.874;2023-04-08T01:25:09;101679.78;;;6.94;100.00
50242;BME280;36126;43.222;27.874;2023-04-08T01:27:36;101685.53;;;7.07;100.00
50242;BME280;36126;43.222;27.874;2023-04-08T01:30:03;101687.69;;;6.97;100.00
50242;BME280;36126;43.222;27.874;2023-04-08T01:32:29;101687.88;;;6.95;100.00
50242;BME280;36126;43.222;27.874;2023-04-08T01:34:55;101680.72;;;6.86;100.00
50242;BME280;36126;43.222;27.874;2023-04-08T01:37:22;101682.91;;;6.76;100.00
50242;BME280;36126;43.222;27.874;2023-04-08T01:39:49;101683.63;;;6.70;100.00
50242;BME280;36126;43.222;27.874;2023-04-08T01:42:16;101679.44;;;6.74;100.00
50242;BME280;36126;43.222;27.874;2023-04-08T01:44:42;101686.69;;;6.75;100.00
50242;BME280;36126;43.222;27.874;2023-04-08T01:47:08;101682.13;;;6.82;100.00
50242;BME280;36126;43.222;27.874;2023-04-08T01:49:34;101671.66;;;6.77;100.00
50242;BME280;36126;43.222;27.874;2023-04-08T01:52:00;101677.06;;;6.71;100.00
50242;BME280;36126;43.222;27.874;2023-04-08T01:54:36;101677.34;;;6.61;100.00
50242;BME280;36126;43.222;27.874;2023-04-08T01:57:03;101679.63;;;6.57;100.00
50242;BME280;36126;43.222;27.874;2023-04-08T01:59:30;101678.41;;;6.37;100.00
50242;BME280;36126;43.222;27.874;2023-04-08T02:01:59;101672.31;;;6.41;100.00
50242;BME280;36126;43.222;27.874;2023-04-08T02:04:25;101678.88;;;6.40;100.00
50242;BME280;36126;43.222;27.874;2023-04-08T02:06:51;101673.03;;;6.58;100.00
50242;BME280;36126;43.222;27.874;2023-04-08T02:09:19;101669.63;;;6.56;100.00
50242;BME280;36126;43.222;27.874;2023-04-08T02:11:45;101674.09;;;6.57;100.00
50242;BME280;36126;43.222;27.874;2023-04-08T02:16:52;101687.09;;;6.72;100.00
50242;BME280;36126;43.222;27.874;2023-04-08T02:19:34;101692.59;;;6.72;100.00
50242;BME280;36126;43.222;27.874;2023-04-08T02:22:04;101696.47;;;6.62;100.00
50242;BME280;36126;43.222;27.874;2023-04-08T02:27:13;101704.25;;;6.44;100.00
50242;BME280;36126;43.222;27.874;2023-04-08T02:29:41;101708.59;;;6.38;100.00
50242;BME280;36126;43.222;27.874;2023-04-08T02:42:33;101713.44;;;6.05;100.00
50242;BME280;36126;43.222;27.874;2023-04-08T02:44:58;101710.03;;;5.55;100.00
50242;BME280;36126;43.222;27.874;2023-04-08T02:47:24;101713.75;;;5.39;100.00
50242;BME280;36126;43.222;27.874;2023-04-08T02:49:50;101721.31;;;5.37;100.00
50242;BME280;36126;43.222;27.874;2023-04-08T02:52:19;101715.88;;;5.04;100.00
50242;BME280;36126;43.222;27.874;2023-04-08T02:54:45;101716.38;;;5.16;100.00
50242;BME280;36126;43.222;27.874;2023-04-08T02:57:10;101719.06;;;5.40;100.00
50242;BME280;36126;43.222;27.874;2023-04-08T02:59:37;101717.69;;;5.44;100.00
50242;BME280;36126;43.222;27.874;2023-04-08T03:02:03;101727.19;;;5.34;100.00
50242;BME280;36126;43.222;27.874;2023-04-08T03:04:28;101722.72;;;5.24;100.00
50242;BME280;36126;43.222;27.874;2023-04-08T03:12:04;101728.47;;;4.90;100.00
50242;BME280;36126;43.222;27.874;2023-04-08T03:14:30;101734.84;;;4.82;100.00
50242;BME280;36126;43.222;27.874;2023-04-08T03:19:30;101733.84;;;4.58;100.00
50242;BME280;36126;43.222;27.874;2023-04-08T03:24:31;101733.78;;;4.75;100.00
50242;BME280;36126;43.222;27.874;2023-04-08T03:26:57;101730.72;;;4.70;100.00
50242;BME280;36126;43.222;27.874;2023-04-08T03:29:22;101738.97;;;4.62;100.00
50242;BME280;36126;43.222;27.874;2023-04-08T03:34:37;101738.09;;;4.45;100.00
50242;BME280;36126;43.222;27.874;2023-04-08T03:37:03;101746.34;;;4.45;100.00
50242;BME280;36126;43.222;27.874;2023-04-08T03:42:13;101764.22;;;4.40;100.00
50242;BME280;36126;43.222;27.874;2023-04-08T03:49:51;101751.34;;;4.33;100.00
50242;BME280;36126;43.222;27.874;2023-04-08T03:52:17;101757.53;;;4.43;100.00
50242;BME280;36126;43.222;27.874;2023-04-08T04:05:23;101771.16;;;4.94;100.00
50242;BME280;36126;43.222;27.874;2023-04-08T04:07:49;101769.59;;;5.08;100.00
50242;BME280;36126;43.222;27.874;2023-04-08T04:41:16;101756.19;;;10.48;100.00
50242;BME280;36126;43.222;27.874;2023-04-08T04:48:52;101753.53;;;10.26;100.00
50242;BME280;36126;43.222;27.874;2023-04-08T04:53:52;101759.72;;;10.28;100.00
50242;BME280;36126;43.222;27.874;2023-04-08T05:04:06;101769.09;;;11.29;100.00
50242;BME280;36126;43.222;27.874;2023-04-08T05:06:32;101773.72;;;11.82;100.00
50242;BME280;36126;43.222;27.874;2023-04-08T05:08:57;101780.84;;;12.30;100.00
50242;BME280;36126;43.222;27.874;2023-04-08T05:11:22;101773.47;;;12.81;100.00
50242;BME280;36126;43.222;27.874;2023-04-08T05:18:58;101772.38;;;13.83;100.00
50242;BME280;36126;43.222;27.874;2023-04-08T05:21:24;101778.97;;;13.89;100.00
50242;BME280;36126;43.222;27.874;2023-04-08T05:23:51;101771.38;;;14.15;100.00
50242;BME280;36126;43.222;27.874;2023-04-08T05:26:20;101769.06;;;14.11;100.00
50242;BME280;36126;43.222;27.874;2023-04-08T05:28:47;101772.97;;;14.41;100.00
50242;BME280;36126;43.222;27.874;2023-04-08T05:31:14;101774.78;;;14.96;100.00
50242;BME280;36126;43.222;27.874;2023-04-08T05:33:40;101767.88;;;15.70;100.00
50242;BME280;36126;43.222;27.874;2023-04-08T05:36:05;101776.72;;;16.26;100.00
50242;BME280;36126;43.222;27.874;2023-04-08T05:38:32;101780.09;;;15.87;100.00
50242;BME280;36126;43.222;27.874;2023-04-08T05:40:58;101776.16;;;15.17;100.00
50242;BME280;36126;43.222;27.874;2023-04-08T05:43:24;101776.00;;;15.00;100.00
50242;BME280;36126;43.222;27.874;2023-04-08T05:48:24;101772.28;;;15.54;100.00
50242;BME280;36126;43.222;27.874;2023-04-08T05:50:54;101776.25;;;14.99;100.00
50242;BME280;36126;43.222;27.874;2023-04-08T05:53:20;101773.75;;;14.78;100.00
50242;BME280;36126;43.222;27.874;2023-04-08T05:55:46;101763.06;;;14.87;100.00
50242;BME280;36126;43.222;27.874;2023-04-08T05:58:11;101774.25;;;14.87;100.00
50242;BME280;36126;43.222;27.874;2023-04-08T06:00:37;101766.47;;;14.59;100.00
50242;BME280;36126;43.222;27.874;2023-04-08T06:03:03;101771.44;;;14.57;100.00
50242;BME280;36126;43.222;27.874;2023-04-08T06:05:29;101774.97;;;14.83;100.00
50242;BME280;36126;43.222;27.874;2023-04-08T06:07:55;101770.22;;;14.71;100.00
50242;BME280;36126;43.222;27.874;2023-04-08T06:10:21;101771.69;;;14.86;100.00
50242;BME280;36126;43.222;27.874;2023-04-08T06:12:47;101774.56;;;15.09;100.00
50242;BME280;36126;43.222;27.874;2023-04-08T06:15:14;101777.09;;;14.99;100.00
50242;BME280;36126;43.222;27.874;2023-04-08T06:17:40;101770.91;;;15.09;100.00
50242;BME280;36126;43.222;27.874;2023-04-08T06:20:06;101773.88;;;14.53;100.00
50242;BME280;36126;43.222;27.874;2023-04-08T06:22:34;101773.22;;;14.21;100.00
50242;BME280;36126;43.222;27.874;2023-04-08T06:25:00;101773.50;;;13.38;100.00
50242;BME280;36126;43.222;27.874;2023-04-08T06:27:26;101778.81;;;12.83;100.00
50242;BME280;36126;43.222;27.874;2023-04-08T06:29:53;101777.28;;;12.87;100.00
50242;BME280;36126;43.222;27.874;2023-04-08T06:32:19;101773.97;;;12.71;100.00
50242;BME280;36126;43.222;27.874;2023-04-08T06:34:45;101770.34;;;12.71;100.00
50242;BME280;36126;43.222;27.874;2023-04-08T06:37:11;101773.34;;;12.37;100.00
50242;BME280;36126;43.222;27.874;2023-04-08T06:39:37;101772.56;;;12.17;100.00
50242;BME280;36126;43.222;27.874;2023-04-08T06:42:03;101766.59;;;11.93;100.00
50242;BME280;36126;43.222;27.874;2023-04-08T06:44:28;101766.91;;;11.71;100.00
50242;BME280;36126;43.222;27.874;2023-04-08T06:46:54;101770.00;;;12.15;100.00
50242;BME280;36126;43.222;27.874;2023-04-08T06:49:20;101769.31;;;12.27;100.00
50242;BME280;36126;43.222;27.874;2023-04-08T06:51:45;101767.97;;;11.70;100.00
50242;BME280;36126;43.222;27.874;2023-04-08T06:54:11;101761.34;;;11.65;100.00
50242;BME280;36126;43.222;27.874;2023-04-08T06:56:36;101768.44;;;11.54;100.00
50242;BME280;36126;43.222;27.874;2023-04-08T06:59:02;101766.28;;;11.56;100.00
50242;BME280;36126;43.222;27.874;2023-04-08T07:01:29;101770.31;;;11.67;100.00
50242;BME280;36126;43.222;27.874;2023-04-08T07:03:55;101777.50;;;12.15;100.00
50242;BME280;36126;43.222;27.874;2023-04-08T07:06:21;101777.44;;;12.28;100.00
50242;BME280;36126;43.222;27.874;2023-04-08T07:08:47;101781.84;;;11.97;100.00
50242;BME280;36126;43.222;27.874;2023-04-08T07:11:13;101789.53;;;12.08;100.00
50242;BME280;36126;43.222;27.874;2023-04-08T07:13:39;101783.34;;;12.45;100.00
50242;BME280;36126;43.222;27.874;2023-04-08T07:16:05;101790.19;;;12.49;100.00
50242;BME280;36126;43.222;27.874;2023-04-08T07:18:31;101788.88;;;12.58;100.00
50242;BME280;36126;43.222;27.874;2023-04-08T07:20:57;101786.59;;;13.06;100.00
50242;BME280;36126;43.222;27.874;2023-04-08T07:23:25;101794.75;;;12.75;100.00
50242;BME280;36126;43.222;27.874;2023-04-08T07:25:51;101794.78;;;12.30;100.00
50242;BME280;36126;43.222;27.874;2023-04-08T07:28:18;101802.31;;;12.68;100.00
50242;BME280;36126;43.222;27.874;2023-04-08T07:30:44;101810.63;;;12.82;100.00
50242;BME280;36126;43.222;27.874;2023-04-08T07:33:09;101802.84;;;13.16;100.00
50242;BME280;36126;43.222;27.874;2023-04-08T07:35:35;101799.81;;;13.49;100.00
50242;BME280;36126;43.222;27.874;2023-04-08T07:38:00;101809.09;;;12.86;100.00
50242;BME280;36126;43.222;27.874;2023-04-08T07:40:26;101800.72;;;12.47;100.00
50242;BME280;36126;43.222;27.874;2023-04-08T07:42:51;101810.63;;;12.36;100.00
50242;BME280;36126;43.222;27.874;2023-04-08T07:45:17;101811.16;;;12.58;100.00
50242;BME280;36126;43.222;27.874;2023-04-08T07:47:43;101811.53;;;12.23;100.00
50242;BME280;36126;43.222;27.874;2023-04-08T07:50:09;101812.50;;;11.64;100.00
50242;BME280;36126;43.222;27.874;2023-04-08T07:55:09;101806.31;;;11.55;100.00
50242;BME280;36126;43.222;27.874;2023-04-08T07:57:35;101811.25;;;11.60;100.00
50242;BME280;36126;43.222;27.874;2023-04-08T08:00:01;101805.66;;;11.80;100.00
50242;BME280;36126;43.222;27.874;2023-04-08T08:02:28;101817.19;;;11.97;100.00
50242;BME280;36126;43.222;27.874;2023-04-08T08:04:54;101815.97;;;12.45;100.00
50242;BME280;36126;43.222;27.874;2023-04-08T08:07:19;101814.81;;;12.59;100.00
50242;BME280;36126;43.222;27.874;2023-04-08T08:09:45;101809.88;;;11.89;100.00
50242;BME280;36126;43.222;27.874;2023-04-08T08:12:10;101812.13;;;11.60;100.00
50242;BME280;36126;43.222;27.874;2023-04-08T08:14:37;101810.09;;;12.14;100.00
50242;BME280;36126;43.222;27.874;2023-04-08T08:17:02;101826.41;;;12.56;100.00
50242;BME280;36126;43.222;27.874;2023-04-08T08:19:29;101818.28;;;12.48;100.00
50242;BME280;36126;43.222;27.874;2023-04-08T08:21:55;101821.50;;;12.51;100.00
50242;BME280;36126;43.222;27.874;2023-04-08T08:24:21;101826.25;;;12.83;100.00
50242;BME280;36126;43.222;27.874;2023-04-08T08:26:46;101821.22;;;12.21;100.00
50242;BME280;36126;43.222;27.874;2023-04-08T08:29:13;101823.09;;;12.27;100.00
50242;BME280;36126;43.222;27.874;2023-04-08T08:31:39;101816.53;;;12.60;100.00
50242;BME280;36126;43.222;27.874;2023-04-08T08:34:04;101827.84;;;12.72;100.00
50242;BME280;36126;43.222;27.874;2023-04-08T08:36:30;101828.50;;;12.99;100.00
50242;BME280;36126;43.222;27.874;2023-04-08T08:38:56;101818.69;;;13.22;100.00
50242;BME280;36126;43.222;27.874;2023-04-08T08:41:21;101818.97;;;13.64;100.00
50242;BME280;36126;43.222;27.874;2023-04-08T08:43:47;101823.22;;;13.48;100.00
50242;BME280;36126;43.222;27.874;2023-04-08T08:46:15;101828.63;;;13.43;100.00
50242;BME280;36126;43.222;27.874;2023-04-08T08:48:41;101830.28;;;13.51;100.00
50242;BME280;36126;43.222;27.874;2023-04-08T08:51:08;101827.34;;;13.64;100.00
50242;BME280;36126;43.222;27.874;2023-04-08T08:53:34;101834.78;;;13.77;100.00
50242;BME280;36126;43.222;27.874;2023-04-08T08:56:00;101833.38;;;13.10;100.00
50242;BME280;36126;43.222;27.874;2023-04-08T08:58:26;101838.13;;;12.71;100.00
50242;BME280;36126;43.222;27.874;2023-04-08T09:00:55;101843.19;;;12.36;100.00
50242;BME280;36126;43.222;27.874;2023-04-08T09:03:21;101844.91;;;12.37;100.00
50242;BME280;36126;43.222;27.874;2023-04-08T09:05:58;101850.50;;;12.82;100.00
50242;BME280;36126;43.222;27.874;2023-04-08T09:10:50;101844.19;;;14.38;100.00
50242;BME280;36126;43.222;27.874;2023-04-08T09:13:16;101844.47;;;15.28;100.00
50242;BME280;36126;43.222;27.874;2023-04-08T09:16:01;101852.53;;;15.48;100.00
50242;BME280;36126;43.222;27.874;2023-04-08T09:18:31;101847.41;;;15.45;100.00
50242;BME280;36126;43.222;27.874;2023-04-08T09:20:59;101849.09;;;14.92;100.00
50242;BME280;36126;43.222;27.874;2023-04-08T09:23:40;101852.38;;;14.89;100.00
50242;BME280;36126;43.222;27.874;2023-04-08T09:26:17;101849.78;;;14.87;100.00
50242;BME280;36126;43.222;27.874;2023-04-08T09:31:26;101846.81;;;14.70;100.00
50242;BME280;36126;43.222;27.874;2023-04-08T09:33:56;101842.44;;;15.05;100.00
50242;BME280;36126;43.222;27.874;2023-04-08T09:36:22;101851.81;;;14.68;100.00
50242;BME280;36126;43.222;27.874;2023-04-08T09:38:48;101844.88;;;14.15;100.00
50242;BME280;36126;43.222;27.874;2023-04-08T09:41:16;101841.25;;;14.15;100.00
50242;BME280;36126;43.222;27.874;2023-04-08T09:46:35;101843.75;;;13.79;100.00
50242;BME280;36126;43.222;27.874;2023-04-08T09:52:03;101850.94;;;13.93;100.00
50242;BME280;36126;43.222;27.874;2023-04-08T09:54:30;101840.75;;;13.81;100.00
50242;BME280;36126;43.222;27.874;2023-04-08T09:57:04;101845.44;;;13.30;100.00
50242;BME280;36126;43.222;27.874;2023-04-08T09:59:30;101847.44;;;13.54;100.00
50242;BME280;36126;43.222;27.874;2023-04-08T10:02:00;101841.69;;;13.17;100.00
50242;BME280;36126;43.222;27.874;2023-04-08T10:04:25;101842.50;;;13.24;100.00
50242;BME280;36126;43.222;27.874;2023-04-08T10:06:55;101836.22;;;13.04;100.00
50242;BME280;36126;43.222;27.874;2023-04-08T10:09:21;101831.06;;;13.33;100.00
50242;BME280;36126;43.222;27.874;2023-04-08T10:11:48;101829.84;;;13.22;100.00
50242;BME280;36126;43.222;27.874;2023-04-08T10:14:15;101827.19;;;13.02;100.00
50242;BME280;36126;43.222;27.874;2023-04-08T10:16:42;101830.94;;;12.89;100.00
50242;BME280;36126;43.222;27.874;2023-04-08T10:21:52;101828.03;;;12.70;100.00
50242;BME280;36126;43.222;27.874;2023-04-08T10:24:17;101831.81;;;12.44;100.00
50242;BME280;36126;43.222;27.874;2023-04-08T10:26:48;101821.13;;;12.34;100.00
50242;BME280;36126;43.222;27.874;2023-04-08T10:31:42;101818.78;;;12.38;100.00
50242;BME280;36126;43.222;27.874;2023-04-08T10:34:20;101812.41;;;12.24;100.00
50242;BME280;36126;43.222;27.874;2023-04-08T10:36:47;101814.16;;;12.12;100.00
50242;BME280;36126;43.222;27.874;2023-04-08T10:39:15;101804.31;;;11.89;100.00
50242;BME280;36126;43.222;27.874;2023-04-08T10:41:41;101810.66;;;12.30;100.00
50242;BME280;36126;43.222;27.874;2023-04-08T10:44:14;101813.78;;;11.88;100.00
50242;BME280;36126;43.222;27.874;2023-04-08T10:46:40;101818.47;;;11.87;100.00
50242;BME280;36126;43.222;27.874;2023-04-08T10:49:06;101822.75;;;12.10;100.00
50242;BME280;36126;43.222;27.874;2023-04-08T10:51:38;101819.97;;;11.97;100.00
50242;BME280;36126;43.222;27.874;2023-04-08T10:54:05;101826.38;;;12.04;100.00
50242;BME280;36126;43.222;27.874;2023-04-08T10:56:32;101827.41;;;12.16;100.00
50242;BME280;36126;43.222;27.874;2023-04-08T10:58:58;101830.44;;;12.08;100.00
50242;BME280;36126;43.222;27.874;2023-04-08T11:01:24;101829.84;;;11.99;100.00
50242;BME280;36126;43.222;27.874;2023-04-08T11:03:51;101825.75;;;12.02;100.00
50242;BME280;36126;43.222;27.874;2023-04-08T11:06:18;101816.13;;;11.84;100.00
50242;BME280;36126;43.222;27.874;2023-04-08T11:08:44;101823.19;;;11.87;100.00
50242;BME280;36126;43.222;27.874;2023-04-08T11:11:11;101817.41;;;11.88;100.00
50242;BME280;36126;43.222;27.874;2023-04-08T11:13:44;101820.66;;;11.72;100.00
50242;BME280;36126;43.222;27.874;2023-04-08T11:16:09;101818.91;;;11.78;100.00
50242;BME280;36126;43.222;27.874;2023-04-08T11:18:39;101802.66;;;11.74;100.00
50242;BME280;36126;43.222;27.874;2023-04-08T11:21:09;101815.38;;;12.29;100.00
50242;BME280;36126;43.222;27.874;2023-04-08T11:23:35;101811.13;;;12.65;100.00
50242;BME280;36126;43.222;27.874;2023-04-08T11:26:01;101815.41;;;12.68;100.00
50242;BME280;36126;43.222;27.874;2023-04-08T11:28:27;101817.66;;;13.16;100.00
50242;BME280;36126;43.222;27.874;2023-04-08T11:30:53;101803.63;;;13.23;100.00
50242;BME280;36126;43.222;27.874;2023-04-08T11:33:19;101800.91;;;13.48;100.00
50242;BME280;36126;43.222;27.874;2023-04-08T11:35:49;101802.53;;;13.56;100.00
50242;BME280;36126;43.222;27.874;2023-04-08T11:38:15;101801.09;;;13.90;100.00
50242;BME280;36126;43.222;27.874;2023-04-08T11:40:50;101797.84;;;13.24;100.00
50242;BME280;36126;43.222;27.874;2023-04-08T11:43:16;101790.50;;;13.55;100.00
50242;BME280;36126;43.222;27.874;2023-04-08T11:45:42;101788.00;;;13.91;100.00
50242;BME280;36126;43.222;27.874;2023-04-08T11:48:11;101791.72;;;14.22;100.00
50242;BME280;36126;43.222;27.874;2023-04-08T11:50:38;101794.53;;;14.03;100.00
50242;BME280;36126;43.222;27.874;2023-04-08T11:53:04;101788.41;;;13.51;100.00
50242;BME280;36126;43.222;27.874;2023-04-08T11:55:40;101790.50;;;13.55;100.00
50242;BME280;36126;43.222;27.874;2023-04-08T11:58:05;101779.22;;;13.43;100.00
50242;BME280;36126;43.222;27.874;2023-04-08T12:00:31;101774.56;;;13.12;100.00
50242;BME280;36126;43.222;27.874;2023-04-08T12:02:57;101777.50;;;12.92;100.00
50242;BME280;36126;43.222;27.874;2023-04-08T12:05:23;101773.38;;;12.69;100.00
50242;BME280;36126;43.222;27.874;2023-04-08T12:07:49;101772.63;;;12.49;100.00
50242;BME280;36126;43.222;27.874;2023-04-08T12:10:15;101768.25;;;12.21;100.00
50242;BME280;36126;43.222;27.874;2023-04-08T12:12:40;101765.06;;;12.17;100.00
50242;BME280;36126;43.222;27.874;2023-04-08T12:15:06;101764.63;;;12.59;100.00
50242;BME280;36126;43.222;27.874;2023-04-08T12:17:33;101763.84;;;12.45;100.00
50242;BME280;36126;43.222;27.874;2023-04-08T12:19:58;101768.56;;;12.45;100.00
50242;BME280;36126;43.222;27.874;2023-04-08T12:22:25;101768.38;;;12.39;100.00
50242;BME280;36126;43.222;27.874;2023-04-08T12:24:51;101756.22;;;12.27;100.00
50242;BME280;36126;43.222;27.874;2023-04-08T12:27:20;101761.72;;;11.95;100.00
50242;BME280;36126;43.222;27.874;2023-04-08T12:29:45;101767.06;;;11.90;100.00
50242;BME280;36126;43.222;27.874;2023-04-08T12:34:57;101758.91;;;11.88;100.00
50242;BME280;36126;43.222;27.874;2023-04-08T12:37:23;101747.78;;;11.82;100.00
50242;BME280;36126;43.222;27.874;2023-04-08T12:39:49;101753.78;;;11.99;100.00
50242;BME280;36126;43.222;27.874;2023-04-08T12:42:14;101747.72;;;12.15;100.00
50242;BME280;36126;43.222;27.874;2023-04-08T12:44:40;101740.75;;;12.31;100.00
50242;BME280;36126;43.222;27.874;2023-04-08T12:47:06;101742.19;;;12.02;100.00
50242;BME280;36126;43.222;27.874;2023-04-08T12:49:31;101744.16;;;11.88;100.00
50242;BME280;36126;43.222;27.874;2023-04-08T12:51:57;101737.75;;;11.81;100.00
50242;BME280;36126;43.222;27.874;2023-04-08T12:54:22;101736.34;;;12.17;100.00
50242;BME280;36126;43.222;27.874;2023-04-08T13:48:23;101733.34;;;11.33;100.00
50242;BME280;36126;43.222;27.874;2023-04-08T13:50:49;101736.97;;;11.47;100.00
50242;BME280;36126;43.222;27.874;2023-04-08T13:53:19;101732.69;;;11.44;100.00
50242;BME280;36126;43.222;27.874;2023-04-08T13:55:45;101741.75;;;12.05;100.00
50242;BME280;36126;43.222;27.874;2023-04-08T13:58:13;101743.50;;;11.99;100.00
50242;BME280;36126;43.222;27.874;2023-04-08T14:00:39;101744.38;;;11.80;100.00
50242;BME280;36126;43.222;27.874;2023-04-08T14:03:06;101744.16;;;11.81;100.00
50242;BME280;36126;43.222;27.874;2023-04-08T14:05:32;101742.31;;;11.62;100.00
50242;BME280;36126;43.222;27.874;2023-04-08T14:13:09;101731.63;;;12.17;100.00
50242;BME280;36126;43.222;27.874;2023-04-08T14:28:31;101714.94;;;11.45;100.00
50242;BME280;36126;43.222;27.874;2023-04-08T14:30:57;101730.97;;;11.50;100.00
50242;BME280;36126;43.222;27.874;2023-04-08T14:33:23;101722.63;;;11.50;100.00
50242;BME280;36126;43.222;27.874;2023-04-08T14:35:51;101726.19;;;11.77;100.00
50242;BME280;36126;43.222;27.874;2023-04-08T14:38:17;101721.75;;;11.56;100.00
50242;BME280;36126;43.222;27.874;2023-04-08T14:40:42;101717.03;;;11.56;100.00
50242;BME280;36126;43.222;27.874;2023-04-08T14:43:08;101724.00;;;11.86;100.00
50242;BME280;36126;43.222;27.874;2023-04-08T14:45:33;101716.47;;;11.93;100.00
50242;BME280;36126;43.222;27.874;2023-04-08T14:47:59;101716.47;;;12.00;100.00
50242;BME280;36126;43.222;27.874;2023-04-08T14:50:24;101729.69;;;12.18;100.00
50242;BME280;36126;43.222;27.874;2023-04-08T15:24:12;101719.44;;;11.19;100.00
50242;BME280;36126;43.222;27.874;2023-04-08T15:26:38;101713.28;;;11.11;100.00
50242;BME280;36126;43.222;27.874;2023-04-08T15:29:03;101703.19;;;11.03;100.00
50242;BME280;36126;43.222;27.874;2023-04-08T15:31:29;101711.75;;;11.15;100.00
50242;BME280;36126;43.222;27.874;2023-04-08T15:33:55;101712.59;;;11.29;100.00
50242;BME280;36126;43.222;27.874;2023-04-08T15:36:22;101712.38;;;11.44;100.00
50242;BME280;36126;43.222;27.874;2023-04-08T15:38:49;101706.16;;;11.42;100.00
50242;BME280;36126;43.222;27.874;2023-04-08T15:41:15;101711.31;;;11.38;100.00
50242;BME280;36126;43.222;27.874;2023-04-08T15:43:44;101713.28;;;11.11;100.00
50242;BME280;36126;43.222;27.874;2023-04-08T15:46:10;101721.81;;;10.89;100.00
50242;BME280;36126;43.222;27.874;2023-04-08T15:48:36;101715.59;;;10.60;100.00
50242;BME280;36126;43.222;27.874;2023-04-08T15:51:05;101721.81;;;10.62;100.00
50242;BME280;36126;43.222;27.874;2023-04-08T15:53:32;101723.94;;;10.60;100.00
50242;BME280;36126;43.222;27.874;2023-04-08T15:55:58;101724.38;;;10.70;100.00
50242;BME280;36126;43.222;27.874;2023-04-08T15:58:24;101719.03;;;10.62;100.00
50242;BME280;36126;43.222;27.874;2023-04-08T16:00:49;101732.69;;;10.50;100.00
50242;BME280;36126;43.222;27.874;2023-04-08T16:03:16;101732.63;;;10.37;100.00
50242;BME280;36126;43.222;27.874;2023-04-08T16:05:42;101730.75;;;10.44;100.00
50242;BME280;36126;43.222;27.874;2023-04-08T16:08:08;101734.72;;;10.28;100.00
50242;BME280;36126;43.222;27.874;2023-04-08T16:10:33;101733.88;;;10.28;100.00
50242;BME280;36126;43.222;27.874;2023-04-08T16:12:59;101735.41;;;10.30;100.00
50242;BME280;36126;43.222;27.874;2023-04-08T16:15:25;101742.00;;;10.29;100.00
50242;BME280;36126;43.222;27.874;2023-04-08T16:17:50;101742.63;;;10.18;100.00
50242;BME280;36126;43.222;27.874;2023-04-08T16:20:19;101749.47;;;10.22;100.00